Temp: 13.7°C   Baro: 1017.6mb
  Wind: 6.9mph   Dir: SW (214°)
  Rain: 0.0mm (0.0mm/hr)
  Solar: 0W/m2  Hum: 86%

Historic data

Bath Spa Weather Station Historical Data
Daily Summary for December 30, 2019 Units:  English    Metric   Both
Daily Weekly Monthly Yearly Custom
  High: Low: Average:
Temperature: 50.9 °F 37.8 °F 43.9 °F
Dew Point: 46.9 °F 36.1 °F 41.9 °F
Humidity: 96% 85.6% 93%
Wind Speed: 5mph 0mph 1.4mph
Wind Gust: 7mph - -
Wind- - SSW
Pressure: 30.43 in 30.35 in -
Precipitation: 0.00 in    
Historical Graphs
 
 
Tabular Data for December 30, 2019
Time Temperature Dew Point Pressure Wind Wind Speed Wind Gust Humidity Rainfall Rate (Hourly) solar
00:09 45 °F 42.8 °F 30.43 in SSE 1 mph 3 mph 92% 0.00 in 0 W/m2
00:14 44.8 °F 42.6 °F 30.43 in SSE 1.3 mph 3 mph 92% 0.00 in 0 W/m2
00:19 44.8 °F 42.6 °F 30.43 in SSE 1.7 mph 3 mph 92% 0.00 in 0 W/m2
00:24 44.9 °F 42.7 °F 30.43 in South 2.3 mph 4 mph 92% 0.00 in 0 W/m2
00:29 45 °F 42.8 °F 30.42 in SSE 1.7 mph 5 mph 92% 0.00 in 0 W/m2
00:34 44.8 °F 42.6 °F 30.42 in SSE 1.7 mph 5 mph 92% 0.00 in 0 W/m2
00:39 44.8 °F 42.6 °F 30.42 in SSE 2.2 mph 3 mph 92% 0.00 in 0 W/m2
00:44 44.6 °F 42.4 °F 30.42 in SSE 1.2 mph 3 mph 92% 0.00 in 0 W/m2
00:49 44.4 °F 42.3 °F 30.41 in ESE 2.2 mph 5 mph 92% 0.00 in 0 W/m2
00:54 44.2 °F 41.9 °F 30.41 in SE 1.3 mph 6 mph 91.6% 0.00 in 0 W/m2
00:59 44.2 °F 41.7 °F 30.41 in SSE 1.2 mph 6 mph 91.3% 0.00 in 0 W/m2
01:04 44.1 °F 41.8 °F 30.41 in SE 1.3 mph 3 mph 91.6% 0.00 in 0 W/m2
01:09 44 °F 41.8 °F 30.41 in ESE 2 mph 5 mph 92% 0.00 in 0 W/m2
01:14 43.9 °F 41.7 °F 30.41 in ESE 2 mph 3 mph 92% 0.00 in 0 W/m2
01:19 43.9 °F 41.7 °F 30.41 in SSE 2.2 mph 5 mph 92% 0.00 in 0 W/m2
01:24 43.6 °F 41.4 °F 30.41 in East 1.6 mph 3 mph 92% 0.00 in 0 W/m2
01:29 43.2 °F 41.1 °F 30.41 in East 1.5 mph 2 mph 92% 0.00 in 0 W/m2
01:34 43.2 °F 41 °F 30.41 in ESE 2.1 mph 4 mph 92% 0.00 in 0 W/m2
01:39 43.2 °F 41 °F 30.41 in East 0.9 mph 3 mph 92% 0.00 in 0 W/m2
01:44 43.1 °F 40.9 °F 30.41 in East 0.8 mph 2 mph 92% 0.00 in 0 W/m2
01:49 43 °F 40.8 °F 30.41 in East 0.8 mph 2 mph 92% 0.00 in 0 W/m2
01:54 42.9 °F 40.7 °F 30.40 in East 0.5 mph 2 mph 92% 0.00 in 0 W/m2
01:59 42.7 °F 40.6 °F 30.41 in East 0.9 mph 2 mph 92% 0.00 in 0 W/m2
02:04 42.6 °F 40.5 °F 30.41 in ENE 2.2 mph 3 mph 92% 0.00 in 0 W/m2
02:09 42.4 °F 40.3 °F 30.41 in ENE 0.5 mph 3 mph 92% 0.00 in 0 W/m2
02:14 42.3 °F 40.2 °F 30.41 in ENE 1.2 mph 2 mph 92% 0.00 in 0 W/m2
02:19 42.3 °F 40.1 °F 30.40 in East 2.2 mph 4 mph 92% 0.00 in 0 W/m2
02:24 42.2 °F 40 °F 30.40 in East 1.1 mph 3 mph 92% 0.00 in 0 W/m2
02:29 41.9 °F 39.8 °F 30.41 in ENE 2.2 mph 3 mph 92.2% 0.00 in 0 W/m2
02:34 42 °F 40.2 °F 30.40 in East 1.6 mph 3 mph 93% 0.00 in 0 W/m2
02:39 42.3 °F 40.5 °F 30.40 in ESE 1 mph 3 mph 93% 0.00 in 0 W/m2
02:44 42.3 °F 40.5 °F 30.40 in East 1.5 mph 3 mph 93% 0.00 in 0 W/m2
02:49 42 °F 40.2 °F 30.40 in ENE 1.6 mph 3 mph 93% 0.00 in 0 W/m2
02:54 41.7 °F 39.8 °F 30.41 in ENE 1.5 mph 3 mph 93% 0.00 in 0 W/m2
02:59 41.3 °F 39.5 °F 30.40 in ENE 0.4 mph 1 mph 93% 0.00 in 0 W/m2
03:04 40.7 °F 38.9 °F 30.40 in ENE 0.8 mph 2 mph 93% 0.00 in 0 W/m2
03:09 40.3 °F 38.5 °F 30.40 in ENE 0.5 mph 2 mph 93% 0.00 in 0 W/m2
03:14 40.2 °F 38.4 °F 30.40 in ENE 0.2 mph 2 mph 93% 0.00 in 0 W/m2
03:19 39.9 °F 38.1 °F 30.40 in ENE 0.5 mph 2 mph 93% 0.00 in 0 W/m2
03:24 39.7 °F 37.9 °F 30.40 in ENE 0.2 mph 1 mph 93% 0.00 in 0 W/m2
03:29 39.6 °F 37.8 °F 30.40 in ENE 0.8 mph 2 mph 93% 0.00 in 0 W/m2
03:34 39.4 °F 37.6 °F 30.40 in Calm   1 mph 93% 0.00 in 0 W/m2
03:39 39 °F 37.2 °F 30.40 in ENE 0.7 mph 2 mph 93% 0.00 in 0 W/m2
03:44 39 °F 37.2 °F 30.40 in ENE 0.2 mph 1 mph 93% 0.00 in 0 W/m2
03:49 39 °F 37.2 °F 30.40 in ENE 0.2 mph 1 mph 93% 0.00 in 0 W/m2
03:54 39 °F 37.2 °F 30.40 in ENE 0.2 mph 1 mph 93% 0.00 in 0 W/m2
03:59 38.9 °F 37.1 °F 30.40 in Calm   1 mph 93% 0.00 in 0 W/m2
04:04 38.8 °F 37 °F 30.40 in ENE 0.2 mph 2 mph 93% 0.00 in 0 W/m2
04:09 38.5 °F 36.7 °F 30.40 in ENE 0.2 mph 2 mph 93% 0.00 in 0 W/m2
04:14 38.5 °F 36.7 °F 30.40 in Calm     93% 0.00 in 0 W/m2
04:19 38.3 °F 36.7 °F 30.40 in ENE 0.8 mph 2 mph 94% 0.00 in 0 W/m2
04:24 38.2 °F 36.5 °F 30.40 in ENE 0.7 mph 1 mph 93.8% 0.00 in 0 W/m2
04:29 38 °F 36.2 °F 30.40 in Calm   1 mph 93% 0.00 in 0 W/m2
04:34 37.9 °F 36.1 °F 30.40 in ENE 0.5 mph 1 mph 93.2% 0.00 in 0 W/m2
04:39 37.9 °F 36.3 °F 30.40 in Calm   1 mph 94% 0.00 in 0 W/m2
04:44 37.9 °F 36.3 °F 30.40 in ENE 0.2 mph 1 mph 94% 0.00 in 0 W/m2
04:49 37.9 °F 36.3 °F 30.40 in Calm   1 mph 94% 0.00 in 0 W/m2
04:53 37.8 °F 36.1 °F 30.40 in ENE 1.2 mph 2 mph 94% 0.00 in 0 W/m2
04:59 37.8 °F 36.1 °F 30.40 in Calm   2 mph 94% 0.00 in 0 W/m2
05:04 37.8 °F 36.1 °F 30.40 in Calm   1 mph 94% 0.00 in 0 W/m2
05:09 37.9 °F 36.2 °F 30.40 in ENE 0.2 mph 2 mph 94% 0.00 in 0 W/m2
05:14 38 °F 36.4 °F 30.40 in Calm   2 mph 94% 0.00 in 0 W/m2
05:19 37.9 °F 36.3 °F 30.40 in Calm   1 mph 94% 0.00 in 0 W/m2
05:24 37.9 °F 36.3 °F 30.40 in ENE 0.2 mph 1 mph 94% 0.00 in 0 W/m2
05:29 38.1 °F 36.5 °F 30.40 in ENE 1.3 mph 2 mph 94% 0.00 in 0 W/m2
05:34 38.6 °F 37 °F 30.39 in ENE 0.9 mph 2 mph 94% 0.00 in 0 W/m2
05:39 38.9 °F 37.3 °F 30.39 in East 1.2 mph 3 mph 94% 0.00 in 0 W/m2
05:44 38.9 °F 37.3 °F 30.39 in East 0.4 mph 2 mph 94% 0.00 in 0 W/m2
05:49 38.6 °F 37 °F 30.39 in Calm   1 mph 94% 0.00 in 0 W/m2
05:54 38.3 °F 36.7 °F 30.39 in East 0.4 mph 1 mph 94% 0.00 in 0 W/m2
05:59 38.1 °F 36.5 °F 30.39 in East 0.8 mph 2 mph 94% 0.00 in 0 W/m2
06:04 38.3 °F 36.7 °F 30.39 in East 1.1 mph 3 mph 94% 0.00 in 0 W/m2
06:09 39 °F 37.4 °F 30.39 in ENE 2 mph 3 mph 94% 0.00 in 0 W/m2
06:14 40 °F 38.5 °F 30.39 in ENE 1.7 mph 3 mph 94.3% 0.00 in 0 W/m2
06:19 40.7 °F 39.2 °F 30.39 in ENE 1.6 mph 3 mph 94.4% 0.00 in 0 W/m2
06:24 41.2 °F 39.9 °F 30.39 in ENE 1.6 mph 2 mph 95% 0.00 in 0 W/m2
06:29 40.9 °F 39.5 °F 30.39 in East 0.4 mph 2 mph 94.8% 0.00 in 0 W/m2
06:34 40.2 °F 38.9 °F 30.39 in ESE 0.5 mph 2 mph 95% 0.00 in 0 W/m2
06:39 39.9 °F 38.5 °F 30.39 in ESE 0.7 mph 2 mph 94.6% 0.00 in 0 W/m2
06:44 39.4 °F 37.9 °F 30.39 in Calm   1 mph 94.4% 0.00 in 0 W/m2
06:49 38.8 °F 37.6 °F 30.39 in ESE 0.9 mph 2 mph 95% 0.00 in 0 W/m2
06:54 38.8 °F 37.5 °F 30.39 in ESE 0.7 mph 2 mph 94.8% 0.00 in 0 W/m2
06:59 38.7 °F 37.1 °F 30.39 in ESE 0.5 mph 1 mph 94.2% 0.00 in 0 W/m2
07:04 38.7 °F 37 °F 30.39 in ESE 0.4 mph 1 mph 94% 0.00 in 0 W/m2
07:09 38.7 °F 37 °F 30.39 in Calm   1 mph 94% 0.00 in 0 W/m2
07:14 38.7 °F 37.2 °F 30.39 in Calm     94.4% 0.00 in 0 W/m2
07:19 38.8 °F 37.6 °F 30.39 in Calm     95% 0.00 in 0 W/m2
07:24 39.1 °F 37.9 °F 30.39 in ESE 0.2 mph 1 mph 95% 0.00 in 0 W/m2
07:29 39.4 °F 38.1 °F 30.39 in ESE 0.2 mph 1 mph 95% 0.00 in 0 W/m2
07:34 39.3 °F 38 °F 30.39 in Calm   1 mph 95% 0.00 in 0 W/m2
07:39 39 °F 37.8 °F 30.40 in ESE 0.2 mph 1 mph 95% 0.00 in 0 W/m2
07:44 39 °F 37.8 °F 30.40 in ESE 0.2 mph 1 mph 95% 0.00 in 0 W/m2
07:49 38.8 °F 37.6 °F 30.39 in ESE 0.4 mph 1 mph 95% 0.00 in 0 W/m2
07:54 38.8 °F 37.6 °F 30.39 in ESE 0.9 mph 2 mph 95% 0.00 in 0 W/m2
07:59 38.9 °F 37.7 °F 30.39 in SE 0.5 mph 2 mph 95% 0.00 in 0 W/m2
08:04 39.4 °F 38.1 °F 30.39 in SE 0.4 mph 2 mph 95% 0.00 in 0 W/m2
08:09 39.9 °F 38.6 °F 30.39 in SE 0.7 mph 2 mph 95% 0.00 in 0 W/m2
08:14 40.9 °F 39.6 °F 30.39 in SE 0.2 mph 2 mph 95% 0.00 in 0 W/m2
08:19 41.3 °F 40.1 °F 30.39 in Calm   1 mph 95% 0.00 in 0 W/m2
08:24 41.7 °F 40.5 °F 30.39 in SE 0.9 mph 2 mph 95% 0.00 in 5 W/m2
08:29 41.8 °F 40.6 °F 30.39 in SE 2 mph 2 mph 95% 0.00 in 9 W/m2
08:34 42.2 °F 41 °F 30.39 in SE 1.3 mph 2 mph 95% 0.00 in 12 W/m2
08:39 42.4 °F 41.2 °F 30.40 in SE 0.4 mph 1 mph 95% 0.00 in 12 W/m2
08:44 42.4 °F 41.2 °F 30.40 in Calm   1 mph 95% 0.00 in 16 W/m2
08:49 42.3 °F 41 °F 30.40 in SE 0.8 mph 2 mph 95% 0.00 in 21 W/m2
08:54 42 °F 40.7 °F 30.40 in SE 0.5 mph 2 mph 95% 0.00 in 23 W/m2
08:59 41.6 °F 40.4 °F 30.40 in SE 0.2 mph 2 mph 95% 0.00 in 16 W/m2
09:04 41.5 °F 40.3 °F 30.40 in SE 0.2 mph 1 mph 95% 0.00 in 18 W/m2
09:09 41.4 °F 40.1 °F 30.40 in SE 1.3 mph 2 mph 95% 0.00 in 19 W/m2
09:14 41.4 °F 40.1 °F 30.40 in SE 0.4 mph 1 mph 95% 0.00 in 21 W/m2
09:19 41.5 °F 40.3 °F 30.40 in Calm   1 mph 95% 0.00 in 25 W/m2
09:24 41.6 °F 40.3 °F 30.41 in SSE 0.5 mph 2 mph 95% 0.00 in 30 W/m2
09:29 41.6 °F 40.4 °F 30.41 in SSE 0.2 mph 1 mph 95% 0.00 in 40 W/m2
09:34 42 °F 40.7 °F 30.41 in SSE 0.2 mph 1 mph 95% 0.00 in 54 W/m2
09:39 42.3 °F 41 °F 30.41 in SSE 0.4 mph 1 mph 95% 0.00 in 54 W/m2
09:44 42.5 °F 41.3 °F 30.41 in Calm   1 mph 95% 0.00 in 47 W/m2
09:49 42.7 °F 41.5 °F 30.41 in SSE 0.2 mph 1 mph 95.4% 0.00 in 56 W/m2
09:54 43 °F 41.7 °F 30.41 in SSE 0.5 mph 2 mph 95% 0.00 in 56 W/m2
09:59 43 °F 41.7 °F 30.41 in Calm   1 mph 95% 0.00 in 67 W/m2
10:04 43 °F 41.7 °F 30.41 in Calm   2 mph 95% 0.00 in 63 W/m2
10:09 43.3 °F 42.2 °F 30.41 in Calm     96% 0.00 in 69 W/m2
10:14 43.6 °F 42.4 °F 30.41 in Calm   1 mph 95.6% 0.00 in 83 W/m2
10:19 44.2 °F 43.2 °F 30.41 in Calm     96% 0.00 in 90 W/m2
10:24 44.2 °F 43.2 °F 30.41 in SW 1.7 mph 3 mph 96% 0.00 in 105 W/m2
10:29 44.5 °F 43.4 °F 30.41 in WNW 2 mph 3 mph 96% 0.00 in 88 W/m2
10:34 44.8 °F 43.7 °F 30.41 in NW 1.8 mph 5 mph 96% 0.00 in 86 W/m2
10:39 45 °F 43.9 °F 30.41 in West 2.5 mph 5 mph 96% 0.00 in 109 W/m2
10:44 45.1 °F 44.1 °F 30.41 in West 2.1 mph 5 mph 96% 0.00 in 132 W/m2
10:49 45.3 °F 44.2 °F 30.41 in West 2.5 mph 5 mph 96% 0.00 in 139 W/m2
10:54 45.3 °F 44.2 °F 30.41 in West 1.7 mph 4 mph 95.6% 0.00 in 123 W/m2
10:59 45.2 °F 44 °F 30.41 in WNW 3.8 mph 6 mph 95% 0.00 in 107 W/m2
11:04 45.3 °F 44.1 °F 30.41 in West 2 mph 3 mph 95% 0.00 in 114 W/m2
11:09 45.5 °F 44.2 °F 30.40 in West 3 mph 5 mph 95% 0.00 in 156 W/m2
11:14 45.8 °F 44.4 °F 30.40 in West 2 mph 5 mph 95% 0.00 in 135 W/m2
11:19 46 °F 44.5 °F 30.40 in SW 1.2 mph 3 mph 95% 0.00 in 104 W/m2
11:24 46.2 °F 44.8 °F 30.40 in SSW 1.5 mph 4 mph 95% 0.00 in 167 W/m2
11:29 46.4 °F 44.9 °F 30.40 in SW 0.8 mph 4 mph 94.4% 0.00 in 128 W/m2
11:34 46.6 °F 45 °F 30.40 in SSW 3.8 mph 7 mph 94% 0.00 in 221 W/m2
11:39 46.8 °F 45.1 °F 30.40 in SW 2.4 mph 6 mph 94% 0.00 in 225 W/m2
11:44 47 °F 45 °F 30.40 in WSW 2.5 mph 6 mph 93% 0.00 in 236 W/m2
11:49 47.1 °F 45.1 °F 30.40 in WSW 2.9 mph 6 mph 93% 0.00 in 227 W/m2
11:54 47.3 °F 45.2 °F 30.39 in West 3.8 mph 7 mph 92.6% 0.00 in 211 W/m2
11:59 47.6 °F 45.4 °F 30.39 in WSW 2.6 mph 6 mph 92% 0.00 in 209 W/m2
12:04 47.7 °F 45.5 °F 30.39 in West 2.1 mph 4 mph 92% 0.00 in 207 W/m2
12:09 48 °F 45.7 °F 30.39 in West 1.4 mph 3 mph 91.4% 0.00 in 211 W/m2
12:14 48.6 °F 46.1 °F 30.38 in SW 1.5 mph 4 mph 91% 0.00 in 202 W/m2
12:19 49 °F 46.3 °F 30.38 in SW 1.2 mph 4 mph 90.4% 0.00 in 193 W/m2
12:24 49.1 °F 46 °F 30.37 in SSW 2 mph 4 mph 89.2% 0.00 in 186 W/m2
12:29 49.4 °F 46.4 °F 30.37 in SW 1.3 mph 6 mph 89% 0.00 in 188 W/m2
12:34 49.5 °F 46.2 °F 30.37 in SSW 3.3 mph 6 mph 88.4% 0.00 in 190 W/m2
12:39 49.5 °F 46.1 °F 30.37 in SSW 2.5 mph 6 mph 88% 0.00 in 179 W/m2
12:44 49.8 °F 46.4 °F 30.37 in SSW 2.5 mph 5 mph 88% 0.00 in 179 W/m2
12:49 49.9 °F 46.2 °F 30.37 in SW 2.2 mph 4 mph 87.2% 0.00 in 178 W/m2
12:54 50.5 °F 46.7 °F 30.37 in WSW 3 mph 5 mph 87% 0.00 in 174 W/m2
12:59 50.2 °F 46.2 °F 30.37 in WSW 2.9 mph 5 mph 86.2% 0.00 in 174 W/m2
13:04 50.2 °F 46.4 °F 30.36 in WSW 2.9 mph 5 mph 87% 0.00 in 167 W/m2
13:09 50.4 °F 46.7 °F 30.36 in West 3 mph 5 mph 86.8% 0.00 in 165 W/m2
13:14 50.5 °F 46.6 °F 30.36 in WSW 2.5 mph 6 mph 86% 0.00 in 165 W/m2
13:19 50.3 °F 46.3 °F 30.36 in WSW 5 mph 7 mph 86% 0.00 in 162 W/m2
13:24 50 °F 46.1 °F 30.36 in West 2.9 mph 7 mph 86% 0.00 in 156 W/m2
13:29 49.8 °F 45.9 °F 30.36 in West 3.4 mph 6 mph 86% 0.00 in 155 W/m2
13:34 49.8 °F 45.9 °F 30.36 in WSW 3.2 mph 6 mph 86% 0.00 in 151 W/m2
13:39 50 °F 46.2 °F 30.36 in West 2.9 mph 6 mph 87% 0.00 in 146 W/m2
13:44 50.3 °F 46.5 °F 30.35 in WSW 3.7 mph 6 mph 87% 0.00 in 142 W/m2
13:49 50.5 °F 46.6 °F 30.36 in West 4.3 mph 7 mph 86.6% 0.00 in 137 W/m2
13:54 50.4 °F 46.5 °F 30.36 in West 3.2 mph 7 mph 86% 0.00 in 134 W/m2
13:59 50.5 °F 46.6 °F 30.35 in WSW 3.3 mph 5 mph 86% 0.00 in 130 W/m2
14:04 50.5 °F 46.6 °F 30.35 in West 2.4 mph 5 mph 86% 0.00 in 127 W/m2
14:09 50.6 °F 46.7 °F 30.35 in SW 3 mph 5 mph 86% 0.00 in 118 W/m2
14:14 50.5 °F 46.6 °F 30.35 in SW 2.2 mph 6 mph 86% 0.00 in 113 W/m2
14:19 50.6 °F 46.5 °F 30.35 in WSW 2.9 mph 5 mph 85.6% 0.00 in 105 W/m2
14:24 50.5 °F 46.5 °F 30.35 in WSW 1.7 mph 4 mph 85.8% 0.00 in 97 W/m2
14:29 50.7 °F 46.8 °F 30.35 in West 1.7 mph 5 mph 86% 0.00 in 91 W/m2
14:34 50.8 °F 46.9 °F 30.35 in West 2 mph 4 mph 86% 0.00 in 84 W/m2
14:39 50.9 °F 46.9 °F 30.35 in West 2.8 mph 4 mph 86% 0.00 in 81 W/m2
14:44 50.7 °F 46.8 °F 30.35 in West 2 mph 4 mph 86% 0.00 in 74 W/m2
14:49 50.5 °F 46.5 °F 30.36 in WNW 3.3 mph 5 mph 85.8% 0.00 in 67 W/m2
14:54 50.3 °F 46.3 °F 30.36 in West 2.4 mph 4 mph 86% 0.00 in 58 W/m2
14:59 50.2 °F 46.3 °F 30.35 in West 2 mph 4 mph 86.6% 0.00 in 51 W/m2
15:04 50.2 °F 46.4 °F 30.35 in WNW 2.6 mph 4 mph 87% 0.00 in 46 W/m2
15:09 50.2 °F 46.3 °F 30.35 in WNW 2.5 mph 4 mph 87% 0.00 in 39 W/m2
15:14 50.2 °F 46.4 °F 30.35 in West 2.6 mph 5 mph 87% 0.00 in 35 W/m2
15:19 50.3 °F 46.5 °F 30.35 in West 2.4 mph 5 mph 87% 0.00 in 28 W/m2
15:24 50.2 °F 46.4 °F 30.35 in West 1.9 mph 4 mph 87% 0.00 in 25 W/m2
15:29 50.2 °F 46.4 °F 30.35 in West 1.3 mph 3 mph 87% 0.00 in 21 W/m2
15:34 50 °F 46.2 °F 30.35 in West 2.3 mph 4 mph 87% 0.00 in 19 W/m2
15:38 49.8 °F 46 °F 30.35 in West 2 mph 4 mph 87% 0.00 in 18 W/m2
15:44 49.6 °F 45.8 °F 30.35 in West 3.1 mph 5 mph 87% 0.00 in 16 W/m2
15:49 49.2 °F 45.4 °F 30.35 in West 2.2 mph 4 mph 87% 0.00 in 14 W/m2
15:54 48.9 °F 45.4 °F 30.35 in WNW 1.5 mph 4 mph 87.8% 0.00 in 12 W/m2
15:59 48.6 °F 45.2 °F 30.35 in WNW 0.9 mph 3 mph 88% 0.00 in 11 W/m2
16:04 48.5 °F 45.1 °F 30.35 in WNW 1.5 mph 4 mph 88% 0.00 in 7 W/m2
16:09 48.2 °F 44.8 °F 30.36 in WNW 2.1 mph 4 mph 88.2% 0.00 in 5 W/m2
16:14 47.8 °F 44.7 °F 30.36 in NW 2.5 mph 4 mph 88.8% 0.00 in 5 W/m2
16:19 47.6 °F 44.6 °F 30.36 in NNW 2 mph 3 mph 89% 0.00 in 0 W/m2
16:24 47.5 °F 44.4 °F 30.36 in NW 1.3 mph 3 mph 89% 0.00 in 0 W/m2
16:29 47.2 °F 44.4 °F 30.37 in NW 2.5 mph 4 mph 89.8% 0.00 in 0 W/m2
16:34 47 °F 44.3 °F 30.37 in WNW 1.9 mph 4 mph 90% 0.00 in 0 W/m2
16:39 46.9 °F 44.2 °F 30.37 in NW 2 mph 4 mph 90% 0.00 in 0 W/m2
16:44 46.8 °F 44.1 °F 30.37 in WNW 2 mph 3 mph 90% 0.00 in 0 W/m2
16:49 46.8 °F 44.2 °F 30.37 in WNW 0.4 mph 2 mph 90.6% 0.00 in 0 W/m2
16:54 46.7 °F 44.1 °F 30.37 in WNW 0.4 mph 3 mph 91% 0.00 in 0 W/m2
16:59 46.2 °F 43.7 °F 30.36 in SSW 1.7 mph 3 mph 91% 0.00 in 0 W/m2
17:04 46 °F 43.5 °F 30.36 in SE 1.7 mph 3 mph 91% 0.00 in 0 W/m2
17:09 45.5 °F 43 °F 30.36 in ESE 1.3 mph 3 mph 91% 0.00 in 0 W/m2
17:14 45.1 °F 42.6 °F 30.37 in ENE 1.3 mph 3 mph 91% 0.00 in 0 W/m2
17:19 44.9 °F 42.4 °F 30.37 in NE 1.4 mph 3 mph 91% 0.00 in 0 W/m2
17:24 44.8 °F 42.3 °F 30.37 in NE 1.4 mph 2 mph 91% 0.00 in 0 W/m2
17:29 45.1 °F 42.7 °F 30.37 in West 2.5 mph 4 mph 91.4% 0.00 in 0 W/m2
17:34 45.7 °F 43.5 °F 30.37 in WSW 2.2 mph 6 mph 92% 0.00 in 0 W/m2
17:39 45.7 °F 43.5 °F 30.37 in WNW 2 mph 6 mph 92% 0.00 in 0 W/m2
17:44 45.2 °F 43.1 °F 30.37 in NW 1.9 mph 5 mph 92% 0.00 in 0 W/m2
17:49 45 °F 42.8 °F 30.37 in NW 2.8 mph 5 mph 92% 0.00 in 0 W/m2
17:54 44.8 °F 42.6 °F 30.37 in NNW 3.1 mph 5 mph 92% 0.00 in 0 W/m2
17:59 44.6 °F 42.4 °F 30.37 in NW 4.1 mph 5 mph 92% 0.00 in 0 W/m2
18:04 44.7 °F 42.6 °F 30.37 in NW 2.2 mph 5 mph 92.8% 0.00 in 0 W/m2
18:09 44.6 °F 42.6 °F 30.37 in NW 2.4 mph 4 mph 93% 0.00 in 0 W/m2
18:14 44.5 °F 42.5 °F 30.37 in NNW 2 mph 4 mph 93% 0.00 in 0 W/m2
18:19 44.5 °F 42.5 °F 30.37 in NNW 2.1 mph 4 mph 93% 0.00 in 0 W/m2
18:24 44.5 °F 42.5 °F 30.37 in North 1.6 mph 4 mph 93% 0.00 in 0 W/m2
18:29 44.4 °F 42.4 °F 30.38 in NNW 2 mph 4 mph 93% 0.00 in 0 W/m2
18:34 44.2 °F 42.3 °F 30.38 in NW 2.6 mph 5 mph 93% 0.00 in 0 W/m2
18:39 44.2 °F 42.3 °F 30.38 in NW 2 mph 4 mph 93% 0.00 in 0 W/m2
18:44 44.2 °F 42.3 °F 30.38 in NW 2.8 mph 4 mph 93% 0.00 in 0 W/m2
18:49 44.3 °F 42.3 °F 30.39 in NW 1.7 mph 4 mph 93% 0.00 in 0 W/m2
18:54 44.6 °F 42.9 °F 30.39 in NW 0.2 mph 3 mph 93.8% 0.00 in 0 W/m2
18:59 44.7 °F 43.1 °F 30.39 in NW 1.4 mph 3 mph 94% 0.00 in 0 W/m2
19:04 44.8 °F 43.2 °F 30.39 in NW 1.3 mph 3 mph 94% 0.00 in 0 W/m2
19:09 44.8 °F 43.2 °F 30.39 in NNW 1 mph 3 mph 94% 0.00 in 0 W/m2
19:14 45 °F 43.3 °F 30.39 in North 1.9 mph 3 mph 94% 0.00 in 0 W/m2
19:19 45 °F 43.3 °F 30.39 in NW 1.8 mph 3 mph 94% 0.00 in 0 W/m2
19:24 45.1 °F 43.5 °F 30.39 in WNW 1.3 mph 2 mph 94% 0.00 in 0 W/m2
19:29 45.1 °F 43.5 °F 30.39 in WNW 1.5 mph 3 mph 94% 0.00 in 0 W/m2
19:34 45.1 °F 43.5 °F 30.40 in West 1.8 mph 3 mph 94% 0.00 in 0 W/m2
19:39 45.1 °F 43.5 °F 30.40 in WNW 1.9 mph 3 mph 94% 0.00 in 0 W/m2
19:44 45.2 °F 43.6 °F 30.40 in NW 2.8 mph 5 mph 94% 0.00 in 0 W/m2
19:49 45.3 °F 43.7 °F 30.40 in NW 2 mph 4 mph 94% 0.00 in 0 W/m2
19:54 45.3 °F 43.7 °F 30.40 in NW 2.3 mph 4 mph 94% 0.00 in 0 W/m2
19:59 45.3 °F 43.7 °F 30.40 in NW 2.2 mph 4 mph 94% 0.00 in 0 W/m2
20:04 45.5 °F 43.9 °F 30.41 in NNW 1.7 mph 4 mph 94% 0.00 in 0 W/m2
20:09 45.5 °F 43.9 °F 30.41 in NW 2.1 mph 4 mph 94% 0.00 in 0 W/m2
20:14 45.7 °F 44.1 °F 30.41 in NNW 2.9 mph 5 mph 94% 0.00 in 0 W/m2
20:19 45.7 °F 44.1 °F 30.40 in NW 2.2 mph 4 mph 94% 0.00 in 0 W/m2
20:24 45.7 °F 44.1 °F 30.40 in NNW 2.2 mph 5 mph 94% 0.00 in 0 W/m2
20:29 45.7 °F 44.1 °F 30.40 in NW 1.1 mph 3 mph 94% 0.00 in 0 W/m2
20:34 45.7 °F 44.1 °F 30.40 in WNW 0.9 mph 3 mph 94% 0.00 in 0 W/m2
20:39 45.7 °F 44.1 °F 30.41 in WNW 1.5 mph 2 mph 94% 0.00 in 0 W/m2
20:44 45.7 °F 44.1 °F 30.41 in WNW 1.7 mph 3 mph 94% 0.00 in 0 W/m2
20:49 45.7 °F 44.1 °F 30.41 in WNW 1.7 mph 3 mph 94% 0.00 in 0 W/m2
20:54 45.7 °F 44.1 °F 30.41 in WNW 1.2 mph 3 mph 94% 0.00 in 0 W/m2
20:59 45.7 °F 44.1 °F 30.41 in WNW 1.3 mph 2 mph 94% 0.00 in 0 W/m2
21:04 45.6 °F 44 °F 30.41 in WNW 0.9 mph 2 mph 94% 0.00 in 0 W/m2
21:09 45.3 °F 43.7 °F 30.42 in WNW 2.3 mph 3 mph 94% 0.00 in 0 W/m2
21:14 45.1 °F 43.4 °F 30.42 in WNW 1.8 mph 3 mph 94% 0.00 in 0 W/m2
21:19 45 °F 43.3 °F 30.42 in WNW 1.3 mph 2 mph 94% 0.00 in 0 W/m2
21:24 44.7 °F 43.1 °F 30.42 in WNW 1.3 mph 3 mph 94% 0.00 in 0 W/m2
21:29 44.3 °F 42.7 °F 30.42 in WNW 1.3 mph 2 mph 94% 0.00 in 0 W/m2
21:34 44.1 °F 42.5 °F 30.42 in WNW 0.4 mph 2 mph 94% 0.00 in 0 W/m2
21:39 44.1 °F 42.4 °F 30.42 in WNW 0.5 mph 1 mph 94% 0.00 in 0 W/m2
21:44 43.7 °F 42.1 °F 30.42 in WNW 0.2 mph 1 mph 94% 0.00 in 0 W/m2
21:49 43.3 °F 41.6 °F 30.42 in WNW 0.6 mph 2 mph 94% 0.00 in 0 W/m2
21:54 43.2 °F 41.5 °F 30.42 in WNW 1.8 mph 2 mph 94% 0.00 in 0 W/m2
21:59 43.2 °F 41.5 °F 30.42 in WNW 0.2 mph 2 mph 94% 0.00 in 0 W/m2
22:04 43 °F 41.4 °F 30.41 in WNW 0.5 mph 2 mph 94% 0.00 in 0 W/m2
22:09 43 °F 41.4 °F 30.40 in WNW 0.9 mph 2 mph 94% 0.00 in 0 W/m2
22:14 42.8 °F 41.2 °F 30.41 in WNW 0.9 mph 2 mph 94% 0.00 in 0 W/m2
22:19 42.6 °F 41 °F 30.41 in WNW 0.2 mph 2 mph 94% 0.00 in 0 W/m2
22:24 42.4 °F 40.8 °F 30.41 in WNW 1.2 mph 3 mph 94% 0.00 in 0 W/m2
22:29 42.4 °F 40.8 °F 30.41 in WNW 0.2 mph 1 mph 94% 0.00 in 0 W/m2
22:34 42.3 °F 40.6 °F 30.42 in WNW 0.4 mph 1 mph 94% 0.00 in 0 W/m2
22:39 41.9 °F 40.3 °F 30.42 in WNW 1.4 mph 2 mph 94% 0.00 in 0 W/m2
22:44 41.7 °F 40.1 °F 30.42 in WNW 1.7 mph 3 mph 94% 0.00 in 0 W/m2
22:49 41.7 °F 40.1 °F 30.42 in NW 1.3 mph 3 mph 94% 0.00 in 0 W/m2
22:54 41.7 °F 40.1 °F 30.42 in NNW 0.4 mph 2 mph 94% 0.00 in 0 W/m2
22:59 41.8 °F 40.2 °F 30.42 in Calm   3 mph 94% 0.00 in 0 W/m2
23:04 41.9 °F 40.3 °F 30.42 in Calm     94% 0.00 in 0 W/m2
23:09 41.9 °F 40.3 °F 30.42 in NNW 0.4 mph 1 mph 94% 0.00 in 0 W/m2
23:14 41.8 °F 40.3 °F 30.42 in NNW 1 mph 2 mph 94% 0.00 in 0 W/m2
23:19 41.7 °F 40.1 °F 30.42 in NNW 0.7 mph 2 mph 94% 0.00 in 0 W/m2
23:24 41.4 °F 39.8 °F 30.42 in NNW 1.1 mph 3 mph 94% 0.00 in 0 W/m2
23:29 41.5 °F 39.9 °F 30.42 in NNW 0.4 mph 2 mph 94% 0.00 in 0 W/m2
23:34 41.5 °F 39.9 °F 30.42 in Calm   3 mph 94% 0.00 in 0 W/m2
23:39 41.4 °F 39.8 °F 30.41 in NNW 0.4 mph 1 mph 94% 0.00 in 0 W/m2
23:43 41.4 °F 39.7 °F 30.41 in NNW 0.5 mph 2 mph 94% 0.00 in 0 W/m2
23:49 41.2 °F 39.6 °F 30.41 in Calm   1 mph 94% 0.00 in 0 W/m2
23:54 41 °F 39.4 °F 30.41 in Calm     94% 0.00 in 0 W/m2
23:59 40.8 °F 39.2 °F 30.41 in NNW 0.9 mph 2 mph 94% 0.00 in 0 W/m2
Bath Spa Weather
Compliments of Weather Underground - 2 mb